createdAt,value
2022-11-17T00:00:01.042Z,62.20
2022-11-17T00:01:01.052Z,65.42
2022-11-17T00:02:01.049Z,63.97
2022-11-17T00:03:01.084Z,64.94
2022-11-17T00:04:00.984Z,64.13
2022-11-17T00:05:00.962Z,61.39
2022-11-17T00:06:01.001Z,63.65
2022-11-17T00:07:00.953Z,69.13
2022-11-17T00:08:00.987Z,67.03
2022-11-17T00:09:00.897Z,68.32
2022-11-17T00:10:00.892Z,66.06
2022-11-17T00:11:00.918Z,61.23
2022-11-17T00:12:00.862Z,61.87
2022-11-17T00:13:00.837Z,60.59
2022-11-17T00:14:00.831Z,63.97
2022-11-17T00:15:00.802Z,65.74
2022-11-17T00:16:00.818Z,62.36
2022-11-17T00:17:00.790Z,67.19
2022-11-17T00:18:00.740Z,65.26
2022-11-17T00:19:00.737Z,63.97
2022-11-17T00:20:00.716Z,67.51
2022-11-17T00:21:00.699Z,65.26
2022-11-17T00:22:00.703Z,64.61
2022-11-17T00:23:00.659Z,64.29
2022-11-17T00:24:00.708Z,61.71
2022-11-17T00:25:00.633Z,62.20
2022-11-17T00:26:00.627Z,63.97
2022-11-17T00:27:00.623Z,64.78
2022-11-17T00:28:00.576Z,63.97
2022-11-17T00:29:00.562Z,62.52
2022-11-17T00:30:00.535Z,63.33
2022-11-17T00:31:00.523Z,64.94
2022-11-17T00:32:00.532Z,65.10
2022-11-17T00:33:00.496Z,67.68
2022-11-17T00:34:00.480Z,62.36
2022-11-17T00:35:00.472Z,64.78
2022-11-17T00:36:00.439Z,66.23
2022-11-17T00:37:00.457Z,62.68
2022-11-17T00:38:00.440Z,64.29
2022-11-17T00:39:00.379Z,64.94
2022-11-17T00:40:01.131Z,63.00
2022-11-17T00:41:01.347Z,63.65
2022-11-17T00:42:00.353Z,62.20
2022-11-17T00:43:00.309Z,67.35
2022-11-17T00:44:00.298Z,62.52
2022-11-17T00:45:00.269Z,66.87
2022-11-17T00:46:00.261Z,68.64
2022-11-17T00:47:00.274Z,67.35
2022-11-17T00:48:00.218Z,64.29
2022-11-17T00:49:00.215Z,61.23
2022-11-17T00:50:00.213Z,59.94
2022-11-17T00:51:00.182Z,61.55
2022-11-17T00:52:00.189Z,65.74
2022-11-17T00:53:00.151Z,61.07
2022-11-17T00:54:00.124Z,59.94
2022-11-17T00:55:00.169Z,61.23
2022-11-17T00:56:00.088Z,68.32
2022-11-17T00:57:00.096Z,66.39
2022-11-17T00:58:00.046Z,67.19
2022-11-17T00:59:00.037Z,62.68
2022-11-17T01:00:00.008Z,64.45
2022-11-17T01:01:00.012Z,64.45
2022-11-17T01:02:00.084Z,63.00
2022-11-17T01:02:59.962Z,62.36
2022-11-17T01:03:59.953Z,66.06
2022-11-17T01:04:59.933Z,65.58
2022-11-17T01:05:59.916Z,67.51
2022-11-17T01:06:59.983Z,65.74
2022-11-17T01:07:59.889Z,66.55
2022-11-17T01:08:59.860Z,68.00
2022-11-17T01:09:59.851Z,65.10
2022-11-17T01:10:59.827Z,62.36
2022-11-17T01:11:59.909Z,60.91
2022-11-17T01:12:59.826Z,62.84
2022-11-17T01:13:59.784Z,61.55
2022-11-17T01:14:59.788Z,63.00
2022-11-17T01:15:59.749Z,62.68
2022-11-17T01:16:59.761Z,66.39
2022-11-17T01:17:59.816Z,65.26
2022-11-17T01:18:59.704Z,66.06
2022-11-17T01:19:59.670Z,65.42
2022-11-17T01:20:59.651Z,66.55
2022-11-17T01:21:59.819Z,67.03
2022-11-17T01:22:59.632Z,62.84
2022-11-17T01:23:59.604Z,64.94
2022-11-17T01:24:59.586Z,63.49
2022-11-17T01:25:59.565Z,63.33
2022-11-17T01:26:59.584Z,66.06
2022-11-17T01:27:59.595Z,65.90
2022-11-17T01:28:59.528Z,67.19
2022-11-17T01:29:59.502Z,65.58
2022-11-17T01:30:59.495Z,62.52
2022-11-17T01:31:59.503Z,63.16
2022-11-17T01:32:59.478Z,66.23
2022-11-17T01:33:59.436Z,67.84
2022-11-17T01:34:59.441Z,62.52
2022-11-17T01:35:59.407Z,60.42
2022-11-17T01:36:59.413Z,65.58
2022-11-17T01:37:59.371Z,64.45
2022-11-17T01:38:59.354Z,64.61
2022-11-17T01:39:59.326Z,63.65
2022-11-17T01:40:59.313Z,63.65
2022-11-17T01:41:59.316Z,67.19
2022-11-17T01:42:59.285Z,67.68
2022-11-17T01:43:59.262Z,65.10
2022-11-17T01:44:59.251Z,66.87
2022-11-17T01:45:59.231Z,65.74
2022-11-17T01:47:01.099Z,66.87
2022-11-17T01:48:00.181Z,64.94
2022-11-17T01:48:59.168Z,66.71
2022-11-17T01:49:59.224Z,64.61
2022-11-17T01:50:59.139Z,62.52
2022-11-17T01:51:59.177Z,61.39
2022-11-17T01:52:59.106Z,61.71
2022-11-17T01:53:59.093Z,63.33
2022-11-17T01:54:59.094Z,63.00
2022-11-17T01:55:59.057Z,66.06
2022-11-17T01:56:59.100Z,61.71
2022-11-17T01:57:59.012Z,65.74
2022-11-17T01:58:59.005Z,64.45
2022-11-17T01:59:58.982Z,63.00
2022-11-17T02:00:58.972Z,63.16
2022-11-17T02:01:59.037Z,66.55
2022-11-17T02:02:58.968Z,65.10
2022-11-17T02:03:58.912Z,63.16
2022-11-17T02:04:58.905Z,65.74
2022-11-17T02:05:58.887Z,63.49
2022-11-17T02:06:58.936Z,68.00
2022-11-17T02:07:58.853Z,66.06
2022-11-17T02:08:58.838Z,62.20
2022-11-17T02:09:58.817Z,64.29
2022-11-17T02:10:58.797Z,60.75
2022-11-17T02:11:58.812Z,66.06
2022-11-17T02:12:58.758Z,61.07
2022-11-17T02:13:58.762Z,67.03
2022-11-17T02:14:58.728Z,63.16
2022-11-17T02:15:58.789Z,66.55
2022-11-17T02:17:04.827Z,65.26
2022-11-17T02:18:00.680Z,64.61
2022-11-17T02:18:58.676Z,68.64
2022-11-17T02:19:58.654Z,65.58
2022-11-17T02:20:58.633Z,64.78
2022-11-17T02:21:58.643Z,65.26
2022-11-17T02:22:58.591Z,61.07
2022-11-17T02:23:58.588Z,62.52
2022-11-17T02:24:58.555Z,62.52
2022-11-17T02:25:58.543Z,65.42
2022-11-17T02:26:58.549Z,68.96
2022-11-17T02:27:58.507Z,65.90
2022-11-17T02:28:58.480Z,64.78
2022-11-17T02:29:58.462Z,67.19
2022-11-17T02:30:58.445Z,63.97
2022-11-17T02:31:58.528Z,63.81
2022-11-17T02:32:58.428Z,64.29
2022-11-17T02:33:58.403Z,65.42
2022-11-17T02:34:58.397Z,64.29
2022-11-17T02:35:58.368Z,60.91
2022-11-17T02:36:58.376Z,65.42
2022-11-17T02:37:58.322Z,67.35
2022-11-17T02:38:58.319Z,66.39
2022-11-17T02:39:58.295Z,68.80
2022-11-17T02:40:58.282Z,66.06
2022-11-17T02:41:58.291Z,61.23
2022-11-17T02:42:58.245Z,67.51
2022-11-17T02:43:58.225Z,68.96
2022-11-17T02:44:58.218Z,66.23
2022-11-17T02:45:58.199Z,63.00
2022-11-17T02:46:58.213Z,66.87
2022-11-17T02:47:58.222Z,66.39
2022-11-17T02:48:58.139Z,62.68
2022-11-17T02:49:58.132Z,67.68
2022-11-17T02:50:58.094Z,65.10
2022-11-17T02:51:59.133Z,61.23
2022-11-17T02:52:58.081Z,66.06
2022-11-17T02:53:58.059Z,63.49
2022-11-17T02:54:58.025Z,66.87
2022-11-17T02:55:58.026Z,68.64
2022-11-17T02:56:58.040Z,58.17
2022-11-17T02:57:57.989Z,63.00
2022-11-17T02:58:57.966Z,65.58
2022-11-17T02:59:57.951Z,65.74
2022-11-17T03:00:57.949Z,64.29
2022-11-17T03:02:02.848Z,62.04
2022-11-17T03:02:57.988Z,65.26
2022-11-17T03:03:58.807Z,65.10
2022-11-17T03:04:57.854Z,67.03
2022-11-17T03:05:57.846Z,65.74
2022-11-17T03:06:57.907Z,66.06
2022-11-17T03:07:57.850Z,65.10
2022-11-17T03:08:57.795Z,62.04
2022-11-17T03:09:57.769Z,65.10
2022-11-17T03:10:57.750Z,67.03
2022-11-17T03:11:57.810Z,64.61
2022-11-17T03:12:57.747Z,62.36
2022-11-17T03:13:57.696Z,67.03
2022-11-17T03:14:57.687Z,66.06
2022-11-17T03:15:57.673Z,67.19
2022-11-17T03:16:57.659Z,68.16
2022-11-17T03:17:57.692Z,66.06
2022-11-17T03:18:57.619Z,69.45
2022-11-17T03:19:57.667Z,65.90
2022-11-17T03:20:57.589Z,68.16
2022-11-17T03:21:57.578Z,64.94
2022-11-17T03:22:57.579Z,63.65
2022-11-17T03:23:57.529Z,65.74
2022-11-17T03:24:57.518Z,71.38
2022-11-17T03:25:57.495Z,68.96
2022-11-17T03:26:57.479Z,65.10
2022-11-17T03:27:57.498Z,67.84
2022-11-17T03:28:57.451Z,72.67
2022-11-17T03:29:57.439Z,71.06
2022-11-17T03:30:57.412Z,68.32
2022-11-17T03:31:57.417Z,69.13
2022-11-17T03:32:57.412Z,69.45
2022-11-17T03:33:57.373Z,70.25
2022-11-17T03:34:57.347Z,69.77
2022-11-17T03:35:57.394Z,67.68
2022-11-17T03:36:57.309Z,65.74
2022-11-17T03:37:57.334Z,68.96
2022-11-17T03:38:57.276Z,68.80
2022-11-17T03:39:57.265Z,69.45
2022-11-17T03:40:57.259Z,69.45
2022-11-17T03:41:57.229Z,64.45
2022-11-17T03:42:57.245Z,64.61
2022-11-17T03:43:57.204Z,67.03
2022-11-17T03:44:57.188Z,69.93
2022-11-17T03:45:57.190Z,68.16
2022-11-17T03:46:57.155Z,66.71
2022-11-17T03:47:57.162Z,68.48
2022-11-17T03:48:57.139Z,64.29
2022-11-17T03:49:57.083Z,68.64
2022-11-17T03:50:57.071Z,68.32
2022-11-17T03:51:57.120Z,67.35
2022-11-17T03:52:57.063Z,68.32
2022-11-17T03:53:57.014Z,68.80
2022-11-17T03:54:56.999Z,71.06
2022-11-17T03:55:56.973Z,66.55
2022-11-17T03:56:56.965Z,70.25
2022-11-17T03:57:56.974Z,69.93
2022-11-17T03:58:56.924Z,65.10
2022-11-17T03:59:56.919Z,70.74
2022-11-17T04:00:56.893Z,72.99
2022-11-17T04:01:56.950Z,66.87
2022-11-17T04:02:56.903Z,71.87
2022-11-17T04:03:56.845Z,72.99
2022-11-17T04:04:56.820Z,69.61
2022-11-17T04:05:56.800Z,67.19
2022-11-17T04:06:56.819Z,69.93
2022-11-17T04:07:56.870Z,69.29
2022-11-17T04:08:56.755Z,70.09
2022-11-17T04:09:56.749Z,68.16
2022-11-17T04:10:56.718Z,66.87
2022-11-17T04:11:56.716Z,68.16
2022-11-17T04:12:56.729Z,68.64
2022-11-17T04:13:56.671Z,69.77
2022-11-17T04:14:56.655Z,69.93
2022-11-17T04:15:56.633Z,71.38
2022-11-17T04:16:56.618Z,70.25
2022-11-17T04:17:56.644Z,68.16
2022-11-17T04:18:58.941Z,69.61
2022-11-17T04:19:57.587Z,70.58
2022-11-17T04:20:56.562Z,70.90
2022-11-17T04:21:56.537Z,71.06
2022-11-17T04:22:56.538Z,66.71
2022-11-17T04:23:56.561Z,68.16
2022-11-17T04:24:56.470Z,71.38
2022-11-17T04:25:56.457Z,70.58
2022-11-17T04:26:56.449Z,71.54
2022-11-17T04:27:56.460Z,68.16
2022-11-17T04:28:56.413Z,68.80
2022-11-17T04:29:56.384Z,69.77
2022-11-17T04:30:56.384Z,70.58
2022-11-17T04:31:56.368Z,71.22
2022-11-17T04:32:56.373Z,65.10
2022-11-17T04:33:56.326Z,68.80
2022-11-17T04:34:56.309Z,68.32
2022-11-17T04:35:56.288Z,69.77
2022-11-17T04:36:56.269Z,69.93
2022-11-17T04:37:56.283Z,70.09
2022-11-17T04:38:56.241Z,69.77
2022-11-17T04:39:56.288Z,65.74
2022-11-17T04:40:56.199Z,68.16
2022-11-17T04:41:56.192Z,70.58
2022-11-17T04:42:56.211Z,67.68
2022-11-17T04:43:56.162Z,68.48
2022-11-17T04:44:56.119Z,69.13
2022-11-17T04:45:56.104Z,71.22
2022-11-17T04:46:56.092Z,68.80
2022-11-17T04:47:56.105Z,67.68
2022-11-17T04:48:56.121Z,70.09
2022-11-17T04:49:56.049Z,67.68
2022-11-17T04:50:56.023Z,67.68
2022-11-17T04:51:56.027Z,72.67
2022-11-17T04:52:56.027Z,68.00
2022-11-17T04:53:55.979Z,69.77
2022-11-17T04:54:55.954Z,67.35
2022-11-17T04:55:55.935Z,70.90
2022-11-17T04:56:55.926Z,71.38
2022-11-17T04:57:55.930Z,70.90
2022-11-17T04:58:55.879Z,70.25
2022-11-17T04:59:55.868Z,72.03
2022-11-17T05:00:55.841Z,69.77
2022-11-17T05:01:57.835Z,69.29
2022-11-17T05:02:56.853Z,71.87
2022-11-17T05:03:55.795Z,71.87
2022-11-17T05:04:55.790Z,70.90
2022-11-17T05:05:55.769Z,70.74
2022-11-17T05:06:55.773Z,69.77
2022-11-17T05:07:55.764Z,72.35
2022-11-17T05:08:55.832Z,72.51
2022-11-17T05:09:55.694Z,70.74
2022-11-17T05:10:55.709Z,71.70
2022-11-17T05:11:55.724Z,71.22
2022-11-17T05:12:55.674Z,72.03
2022-11-17T05:13:55.622Z,72.19
2022-11-17T05:14:55.628Z,70.90
2022-11-17T05:15:55.590Z,70.42
2022-11-17T05:16:55.576Z,70.74
2022-11-17T05:17:55.586Z,68.80
2022-11-17T05:18:55.541Z,68.48
2022-11-17T05:19:55.541Z,70.90
2022-11-17T05:20:55.519Z,71.54
2022-11-17T05:21:55.507Z,73.48
2022-11-17T05:22:55.526Z,73.48
2022-11-17T05:23:55.474Z,70.42
2022-11-17T05:24:55.439Z,72.35
2022-11-17T05:25:55.433Z,70.42
2022-11-17T05:26:55.403Z,72.99
2022-11-17T05:27:55.438Z,73.32
2022-11-17T05:28:55.369Z,73.32
2022-11-17T05:29:55.353Z,70.25
2022-11-17T05:30:55.329Z,71.87
2022-11-17T05:31:55.372Z,71.22
2022-11-17T05:32:55.327Z,69.61
2022-11-17T05:33:55.290Z,70.09
2022-11-17T05:34:55.259Z,72.03
2022-11-17T05:35:55.251Z,73.32
2022-11-17T05:36:55.224Z,70.42
2022-11-17T05:37:55.249Z,72.03
2022-11-17T05:38:55.203Z,68.80
2022-11-17T05:39:55.177Z,70.09
2022-11-17T05:40:55.165Z,71.06
2022-11-17T05:41:55.138Z,72.35
2022-11-17T05:42:57.218Z,72.35
2022-11-17T05:43:56.182Z,72.99
2022-11-17T05:44:55.097Z,72.83
2022-11-17T05:45:55.075Z,70.25
2022-11-17T05:46:55.065Z,73.64
2022-11-17T05:47:55.069Z,73.48
2022-11-17T05:48:55.027Z,67.35
2022-11-17T05:49:55.003Z,71.38
2022-11-17T05:50:55.983Z,70.90
2022-11-17T05:51:54.966Z,71.38
2022-11-17T05:52:54.994Z,71.38
2022-11-17T05:53:54.935Z,69.77
2022-11-17T05:54:54.917Z,72.51
2022-11-17T05:55:54.896Z,72.83
2022-11-17T05:56:54.884Z,70.09
2022-11-17T05:57:54.895Z,69.45
2022-11-17T05:58:54.848Z,68.48
2022-11-17T05:59:54.909Z,70.74
2022-11-17T06:00:54.811Z,73.48
2022-11-17T06:01:54.803Z,71.70
2022-11-17T06:02:54.814Z,70.58
2022-11-17T06:03:54.818Z,72.67
2022-11-17T06:04:54.765Z,73.64
2022-11-17T06:05:54.782Z,73.15
2022-11-17T06:06:54.767Z,71.70
2022-11-17T06:07:54.741Z,70.58
2022-11-17T06:08:54.697Z,70.09
2022-11-17T06:09:54.674Z,67.03
2022-11-17T06:10:54.655Z,66.23
2022-11-17T06:11:54.638Z,72.19
2022-11-17T06:12:54.647Z,72.67
2022-11-17T06:13:54.599Z,72.67
2022-11-17T06:14:54.597Z,73.48
2022-11-17T06:15:54.632Z,69.93
2022-11-17T06:16:54.546Z,74.12
2022-11-17T06:17:54.565Z,71.87
2022-11-17T06:18:54.509Z,71.54
2022-11-17T06:19:54.516Z,72.99
2022-11-17T06:20:54.505Z,71.54
2022-11-17T06:22:11.504Z,72.03
2022-11-17T06:22:56.481Z,69.29
2022-11-17T06:23:54.420Z,70.90
2022-11-17T06:24:54.402Z,71.70
2022-11-17T06:25:54.401Z,71.87
2022-11-17T06:26:54.369Z,72.03
2022-11-17T06:27:54.396Z,72.83
2022-11-17T06:28:54.338Z,70.42
2022-11-17T06:29:54.331Z,71.06
2022-11-17T06:30:54.305Z,73.32
2022-11-17T06:31:54.386Z,73.15
2022-11-17T06:32:54.270Z,68.80
2022-11-17T06:33:54.286Z,69.93
2022-11-17T06:34:56.405Z,71.87
2022-11-17T06:35:55.215Z,69.77
2022-11-17T06:36:54.214Z,72.51
2022-11-17T06:37:54.180Z,69.77
2022-11-17T06:38:54.196Z,71.70
2022-11-17T06:39:54.158Z,68.80
2022-11-17T06:40:54.146Z,70.58
2022-11-17T06:41:54.110Z,69.77
2022-11-17T06:42:54.114Z,70.42
2022-11-17T06:43:54.124Z,72.03
2022-11-17T06:44:54.069Z,72.03
2022-11-17T06:45:54.041Z,71.54
2022-11-17T06:46:54.047Z,72.67
2022-11-17T06:47:54.047Z,72.19
2022-11-17T06:48:54.045Z,71.22
2022-11-17T06:49:54.012Z,70.58
2022-11-17T06:50:53.963Z,69.13
2022-11-17T06:51:53.938Z,71.87
2022-11-17T06:52:53.924Z,72.19
2022-11-17T06:53:53.936Z,72.03
2022-11-17T06:54:53.891Z,70.42
2022-11-17T06:55:54.005Z,72.83
2022-11-17T06:56:53.850Z,70.58
2022-11-17T06:57:53.862Z,70.42
2022-11-17T06:58:53.857Z,71.87
2022-11-17T06:59:53.807Z,72.35
2022-11-17T07:00:53.856Z,69.61
2022-11-17T07:01:53.780Z,68.96
2022-11-17T07:02:53.749Z,71.87
2022-11-17T07:03:53.786Z,70.25
2022-11-17T07:04:53.706Z,70.58
2022-11-17T07:05:53.718Z,72.51
2022-11-17T07:06:54.721Z,71.06
2022-11-17T07:07:53.666Z,70.09
2022-11-17T07:08:53.702Z,70.25
2022-11-17T07:09:53.635Z,71.87
2022-11-17T07:10:53.605Z,69.77
2022-11-17T07:11:53.784Z,70.90
2022-11-17T07:12:53.580Z,72.67
2022-11-17T07:13:53.582Z,69.29
2022-11-17T07:14:53.532Z,69.29
2022-11-17T07:15:53.524Z,71.38
2022-11-17T07:16:53.526Z,73.15
2022-11-17T07:17:53.485Z,71.87
2022-11-17T07:18:53.527Z,70.90
2022-11-17T07:19:53.521Z,73.32
2022-11-17T07:20:53.426Z,70.09
2022-11-17T07:21:53.423Z,67.84
2022-11-17T07:22:53.394Z,72.83
2022-11-17T07:23:53.423Z,69.93
2022-11-17T07:24:53.378Z,69.29
2022-11-17T07:25:53.341Z,70.09
2022-11-17T07:26:53.339Z,69.93
2022-11-17T07:27:53.307Z,70.74
2022-11-17T07:28:53.348Z,68.64
2022-11-17T07:29:53.293Z,70.09
2022-11-17T07:30:53.285Z,68.96
2022-11-17T07:31:53.236Z,70.09
2022-11-17T07:32:54.832Z,70.90
2022-11-17T07:33:54.232Z,69.13
2022-11-17T07:34:53.188Z,70.09
2022-11-17T07:35:53.171Z,70.90
2022-11-17T07:36:53.157Z,71.70
2022-11-17T07:37:53.141Z,71.70
2022-11-17T07:38:53.165Z,72.03
2022-11-17T07:39:53.111Z,70.09
2022-11-17T07:40:53.105Z,71.38
2022-11-17T07:41:53.056Z,69.93
2022-11-17T07:42:53.052Z,70.90
2022-11-17T07:43:53.082Z,70.42
2022-11-17T07:44:53.019Z,71.38
2022-11-17T07:45:53.012Z,70.74
2022-11-17T07:46:53.006Z,72.67
2022-11-17T07:47:53.017Z,70.09
2022-11-17T07:48:52.984Z,70.90
2022-11-17T07:49:52.936Z,70.58
2022-11-17T07:50:52.906Z,70.58
2022-11-17T07:51:52.958Z,72.51
2022-11-17T07:52:52.868Z,70.42
2022-11-17T07:53:52.878Z,71.87
2022-11-17T07:54:52.828Z,70.58
2022-11-17T07:55:52.821Z,69.45
2022-11-17T07:56:52.793Z,70.09
2022-11-17T07:57:52.793Z,70.42
2022-11-17T07:58:52.789Z,71.70
2022-11-17T07:59:52.751Z,70.58
2022-11-17T08:00:52.807Z,69.45
2022-11-17T08:01:52.707Z,67.35
2022-11-17T08:02:52.703Z,70.09
2022-11-17T08:03:52.779Z,70.58
2022-11-17T08:04:52.675Z,69.77
2022-11-17T08:05:52.641Z,72.35
2022-11-17T08:06:52.689Z,70.74
2022-11-17T08:07:52.670Z,71.22
2022-11-17T08:08:52.622Z,68.16
2022-11-17T08:09:52.593Z,70.42
2022-11-17T08:10:52.564Z,68.96
2022-11-17T08:11:52.542Z,69.29
2022-11-17T08:12:52.528Z,69.45
2022-11-17T08:13:52.574Z,70.74
2022-11-17T08:14:52.485Z,70.42
2022-11-17T08:15:52.465Z,71.54
2022-11-17T08:16:52.457Z,71.06
2022-11-17T08:17:52.428Z,68.64
2022-11-17T08:18:52.907Z,68.48
2022-11-17T08:19:53.410Z,70.25
2022-11-17T08:20:52.381Z,72.35
2022-11-17T08:21:52.380Z,68.96
2022-11-17T08:22:52.344Z,70.42
2022-11-17T08:23:52.375Z,69.45
2022-11-17T08:24:52.326Z,71.54
2022-11-17T08:25:52.292Z,69.93
2022-11-17T08:26:52.282Z,70.09
2022-11-17T08:27:52.264Z,72.03
2022-11-17T08:28:56.863Z,72.35
2022-11-17T08:29:54.236Z,71.87
2022-11-17T08:30:52.213Z,70.42
2022-11-17T08:31:52.179Z,70.74
2022-11-17T08:32:53.204Z,69.45
2022-11-17T08:33:52.212Z,69.29
2022-11-17T08:34:52.148Z,68.32
2022-11-17T08:35:52.153Z,70.90
2022-11-17T08:36:52.149Z,67.03
2022-11-17T08:37:52.095Z,70.09
2022-11-17T08:38:52.136Z,69.29
2022-11-17T08:39:52.122Z,70.42
2022-11-17T08:40:52.034Z,68.16
2022-11-17T08:41:52.029Z,70.74
2022-11-17T08:42:56.162Z,71.38
2022-11-17T08:43:54.026Z,69.13
2022-11-17T08:44:51.964Z,68.16
2022-11-17T08:45:51.942Z,69.29
2022-11-17T08:46:51.938Z,67.68
2022-11-17T08:47:51.908Z,65.58
2022-11-17T08:48:56.916Z,70.90
2022-11-17T08:49:53.886Z,69.61
2022-11-17T08:50:51.856Z,70.74
2022-11-17T08:51:51.832Z,68.80
2022-11-17T08:52:51.829Z,68.48
2022-11-17T08:53:51.842Z,70.09
2022-11-17T08:54:51.810Z,69.29
2022-11-17T08:55:52.031Z,67.84
2022-11-17T08:56:51.801Z,70.58
2022-11-17T08:57:51.757Z,69.13
2022-11-17T08:58:51.752Z,66.71
2022-11-17T08:59:51.694Z,66.23
2022-11-17T09:00:51.722Z,70.90
2022-11-17T09:01:51.687Z,68.32
2022-11-17T09:02:51.650Z,70.42
2022-11-17T09:03:51.668Z,69.29
2022-11-17T09:04:51.614Z,68.16
2022-11-17T09:05:51.597Z,67.19
2022-11-17T09:06:51.600Z,69.61
2022-11-17T09:07:51.679Z,69.13
2022-11-17T09:08:51.624Z,72.51
2022-11-17T09:09:51.521Z,73.64
2022-11-17T09:10:51.529Z,68.00
2022-11-17T09:11:51.495Z,70.42
2022-11-17T09:12:51.471Z,70.42
2022-11-17T09:13:51.482Z,72.35
2022-11-17T09:14:51.437Z,70.09
2022-11-17T09:15:51.429Z,70.09
2022-11-17T09:16:51.409Z,68.80
2022-11-17T09:17:51.390Z,69.93
2022-11-17T09:18:52.428Z,69.13
2022-11-17T09:19:51.358Z,69.29
2022-11-17T09:20:51.362Z,70.74
2022-11-17T09:21:51.315Z,70.25
2022-11-17T09:22:51.296Z,69.61
2022-11-17T09:23:51.324Z,70.42
2022-11-17T09:24:51.259Z,71.22
2022-11-17T09:25:51.248Z,71.06
2022-11-17T09:26:51.235Z,67.35
2022-11-17T09:27:51.236Z,68.48
2022-11-17T09:28:51.223Z,70.90
2022-11-17T09:29:51.170Z,69.29
2022-11-17T09:30:51.148Z,67.35
2022-11-17T09:31:51.226Z,70.09
2022-11-17T09:32:51.116Z,68.80
2022-11-17T09:33:51.166Z,69.29
2022-11-17T09:34:52.102Z,68.48
2022-11-17T09:35:51.065Z,69.61
2022-11-17T09:36:51.068Z,71.22
2022-11-17T09:37:51.033Z,70.25
2022-11-17T09:38:51.028Z,69.45
2022-11-17T09:39:51.033Z,70.25
2022-11-17T09:40:50.986Z,71.06
2022-11-17T09:41:50.958Z,71.38
2022-11-17T09:42:50.950Z,69.61
2022-11-17T09:43:50.952Z,68.96
2022-11-17T09:44:50.924Z,70.90
2022-11-17T09:45:50.895Z,70.74
2022-11-17T09:46:50.871Z,70.42
2022-11-17T09:47:50.858Z,67.84
2022-11-17T09:48:50.840Z,65.74
2022-11-17T09:49:56.785Z,70.90
2022-11-17T09:50:52.812Z,70.09
2022-11-17T09:51:50.787Z,72.51
2022-11-17T09:52:50.777Z,68.32
2022-11-17T09:53:50.776Z,70.90
2022-11-17T09:54:50.747Z,71.87
2022-11-17T09:55:50.731Z,67.68
2022-11-17T09:56:50.704Z,70.90
2022-11-17T09:57:50.707Z,69.61
2022-11-17T09:58:50.674Z,67.84
2022-11-17T09:59:50.754Z,64.94
2022-11-17T10:00:50.638Z,70.74
2022-11-17T10:01:50.666Z,72.35
2022-11-17T10:02:50.636Z,69.61
2022-11-17T10:03:50.901Z,71.38
2022-11-17T10:04:50.567Z,69.45
2022-11-17T10:05:50.555Z,72.51
2022-11-17T10:06:50.685Z,71.06
2022-11-17T10:07:50.521Z,72.19
2022-11-17T10:08:50.506Z,68.32
2022-11-17T10:09:50.511Z,69.61
2022-11-17T10:10:50.509Z,67.84
2022-11-17T10:11:50.444Z,67.03
2022-11-17T10:12:50.433Z,70.09
2022-11-17T10:13:50.405Z,68.16
2022-11-17T10:14:50.453Z,68.32
2022-11-17T10:15:50.366Z,71.22
2022-11-17T10:16:50.362Z,71.38
2022-11-17T10:17:50.338Z,70.74
2022-11-17T10:18:50.322Z,68.32
2022-11-17T10:19:50.335Z,72.67
2022-11-17T10:20:50.290Z,70.90
2022-11-17T10:21:50.271Z,70.25
2022-11-17T10:22:50.277Z,71.22
2022-11-17T10:23:50.340Z,68.32
2022-11-17T10:24:50.263Z,69.13
2022-11-17T10:25:50.211Z,68.80
2022-11-17T10:26:50.199Z,71.38
2022-11-17T10:27:50.173Z,71.22
2022-11-17T10:28:50.152Z,69.93
2022-11-17T10:29:50.162Z,68.96
2022-11-17T10:30:50.168Z,69.93
2022-11-17T10:31:50.173Z,67.84
2022-11-17T10:32:50.081Z,68.32
2022-11-17T10:33:50.120Z,71.38
2022-11-17T10:34:50.093Z,69.93
2022-11-17T10:35:50.035Z,68.80
2022-11-17T10:36:50.010Z,70.90
2022-11-17T10:37:50.007Z,67.51
2022-11-17T10:38:50.060Z,70.58
2022-11-17T10:39:49.997Z,69.45
2022-11-17T10:40:49.937Z,68.64
2022-11-17T10:41:49.928Z,71.38
2022-11-17T10:42:49.902Z,70.90
2022-11-17T10:43:49.892Z,72.19
2022-11-17T10:44:49.897Z,71.54
2022-11-17T10:45:49.849Z,69.77
2022-11-17T10:46:52.155Z,69.77
2022-11-17T10:47:49.830Z,72.03
2022-11-17T10:48:49.807Z,67.68
2022-11-17T10:49:49.821Z,71.38
2022-11-17T10:50:49.765Z,71.06
2022-11-17T10:51:49.747Z,68.96
2022-11-17T10:52:49.745Z,69.77
2022-11-17T10:53:50.106Z,69.29
2022-11-17T10:54:49.747Z,68.48
2022-11-17T10:55:49.682Z,67.35
2022-11-17T10:56:49.665Z,70.58
2022-11-17T10:57:49.683Z,71.54
2022-11-17T10:58:49.638Z,71.54
2022-11-17T10:59:55.100Z,67.51
2022-11-17T11:00:51.631Z,68.80
2022-11-17T11:01:49.646Z,70.90
2022-11-17T11:02:49.562Z,69.29
2022-11-17T11:03:49.558Z,69.13
2022-11-17T11:04:49.570Z,69.61
2022-11-17T11:05:49.514Z,66.39
2022-11-17T11:06:49.490Z,69.29
2022-11-17T11:07:49.502Z,69.61
2022-11-17T11:08:49.495Z,69.45
2022-11-17T11:09:49.513Z,69.61
2022-11-17T11:10:49.430Z,69.29
2022-11-17T11:11:49.413Z,70.90
2022-11-17T11:12:49.395Z,70.58
2022-11-17T11:13:49.374Z,69.77
2022-11-17T11:14:49.392Z,68.96
2022-11-17T11:15:49.366Z,70.90
2022-11-17T11:16:49.335Z,70.25
2022-11-17T11:17:49.316Z,71.54
2022-11-17T11:18:49.312Z,70.58
2022-11-17T11:19:49.331Z,69.77
2022-11-17T11:20:49.261Z,70.58
2022-11-17T11:21:49.252Z,69.61
2022-11-17T11:22:49.234Z,67.84
2022-11-17T11:23:49.201Z,69.45
2022-11-17T11:24:49.227Z,70.74
2022-11-17T11:25:49.166Z,71.54
2022-11-17T11:26:49.161Z,70.58
2022-11-17T11:27:49.162Z,68.32
2022-11-17T11:28:54.268Z,67.19
2022-11-17T11:29:51.142Z,68.16
2022-11-17T11:30:49.087Z,70.90
2022-11-17T11:31:49.068Z,69.29
2022-11-17T11:32:49.047Z,69.77
2022-11-17T11:33:49.037Z,69.77
2022-11-17T11:34:49.058Z,69.61
2022-11-17T11:35:49.011Z,67.84
2022-11-17T11:36:48.991Z,68.96
2022-11-17T11:37:48.969Z,69.29
2022-11-17T11:38:48.949Z,69.93
2022-11-17T11:39:48.963Z,70.74
2022-11-17T11:40:48.912Z,68.48
2022-11-17T11:41:48.938Z,68.16
2022-11-17T11:42:48.878Z,68.48
2022-11-17T11:43:48.878Z,67.03
2022-11-17T11:44:48.873Z,65.74
2022-11-17T11:45:48.849Z,68.96
2022-11-17T11:46:48.805Z,70.74
2022-11-17T11:47:48.797Z,70.09
2022-11-17T11:48:48.788Z,68.80
2022-11-17T11:49:48.804Z,70.58
2022-11-17T11:50:48.736Z,69.93
2022-11-17T11:51:48.757Z,68.64
2022-11-17T11:52:48.717Z,65.26
2022-11-17T11:53:48.698Z,68.48
2022-11-17T11:54:50.981Z,68.48
2022-11-17T11:55:49.668Z,68.00
2022-11-17T11:56:48.651Z,68.80
2022-11-17T11:57:48.626Z,68.80
2022-11-17T11:58:48.615Z,68.64
2022-11-17T11:59:48.628Z,69.45
2022-11-17T12:00:48.619Z,70.09
2022-11-17T12:01:48.753Z,67.84
2022-11-17T12:02:48.575Z,69.29
2022-11-17T12:03:48.540Z,69.77
2022-11-17T12:04:48.548Z,67.51
2022-11-17T12:05:48.500Z,68.32
2022-11-17T12:06:48.504Z,67.19
2022-11-17T12:07:48.571Z,67.51
2022-11-17T12:08:48.437Z,68.00
2022-11-17T12:09:48.451Z,68.48
2022-11-17T12:10:48.435Z,68.64
2022-11-17T12:11:48.390Z,70.90
2022-11-17T12:12:48.374Z,70.09
2022-11-17T12:13:53.855Z,67.35
2022-11-17T12:14:50.365Z,66.23
2022-11-17T12:15:48.323Z,68.32
2022-11-17T12:16:48.310Z,70.42
2022-11-17T12:17:48.287Z,66.39
2022-11-17T12:18:48.266Z,69.45
2022-11-17T12:19:48.289Z,68.64
2022-11-17T12:20:48.253Z,69.93
2022-11-17T12:21:48.233Z,68.48
2022-11-17T12:22:48.192Z,69.13
2022-11-17T12:23:48.212Z,69.77
2022-11-17T12:24:48.190Z,68.00
2022-11-17T12:25:53.525Z,68.48
2022-11-17T12:26:50.134Z,68.64
2022-11-17T12:27:48.118Z,69.45
2022-11-17T12:28:48.104Z,68.80
2022-11-17T12:29:48.114Z,70.25
2022-11-17T12:30:48.059Z,68.16
2022-11-17T12:31:48.038Z,66.06
2022-11-17T12:32:48.060Z,66.06
2022-11-17T12:33:48.006Z,69.93
2022-11-17T12:34:48.072Z,68.64
2022-11-17T12:35:48.012Z,67.84
2022-11-17T12:36:47.956Z,69.77
2022-11-17T12:37:47.934Z,69.93
2022-11-17T12:38:47.931Z,71.06
2022-11-17T12:39:47.937Z,70.25
2022-11-17T12:40:47.885Z,69.29
2022-11-17T12:41:47.874Z,69.29
2022-11-17T12:42:47.851Z,67.51
2022-11-17T12:43:47.840Z,67.35
2022-11-17T12:44:47.841Z,68.48
2022-11-17T12:45:47.838Z,68.32
2022-11-17T12:46:47.783Z,67.51
2022-11-17T12:47:59.390Z,66.06
2022-11-17T12:48:49.775Z,70.09
2022-11-17T12:49:47.747Z,67.84
2022-11-17T12:50:47.747Z,69.13
2022-11-17T12:51:47.704Z,69.77